Time;durP1;ratioP1;P1;durP2;ratioP2;P2;SDS_P1;SDS_P2;PMS_P1;PMS_P2;Temp;Humidity;BMP_temperature;BMP_pressure;BME280_temperature;BME280_humidity;BME280_pressure;Samples;Min_cycle;Max_cycle;Signal;HPM_P1;HPM_P2
2021/08/09 00:01:10;;;;;;;9.17;2.50;;;14.70;99.90;;;;;;5116791;27;20252;-77
2021/08/09 00:03:37;;;;;;;7.30;2.13;;;14.70;99.90;;;;;;5115277;27;20534;-78
2021/08/09 00:06:04;;;;;;;10.43;2.10;;;14.70;99.90;;;;;;5114956;27;20213;-78
2021/08/09 00:08:31;;;;;;;10.33;2.23;;;14.70;99.90;;;;;;5119491;27;20572;-78
2021/08/09 00:10:58;;;;;;;9.17;2.77;;;14.70;99.90;;;;;;5116690;27;20654;-78
2021/08/09 00:13:24;;;;;;;8.37;2.43;;;14.70;99.90;;;;;;5117443;27;20205;-77
2021/08/09 00:15:51;;;;;;;11.93;3.23;;;14.70;99.90;;;;;;5114858;27;20596;-78
2021/08/09 00:18:21;;;;;;;8.63;2.67;;;14.70;99.90;;;;;;5115931;27;20276;-78
2021/08/09 00:20:48;;;;;;;11.07;2.67;;;14.70;99.90;;;;;;5114299;27;20205;-77
2021/08/09 00:23:15;;;;;;;9.93;2.20;;;14.70;99.90;;;;;;5114497;27;20206;-77
2021/08/09 00:25:42;;;;;;;11.87;2.67;;;14.70;99.90;;;;;;5117865;27;20202;-78
2021/08/09 00:28:08;;;;;;;12.67;3.23;;;14.80;99.90;;;;;;5131353;27;20220;-77
2021/08/09 00:30:35;;;;;;;10.97;2.70;;;14.80;99.90;;;;;;5149119;27;20581;-78
2021/08/09 00:33:02;;;;;;;12.33;2.87;;;14.70;99.90;;;;;;5149007;27;20200;-78
2021/08/09 00:35:31;;;;;;;11.40;2.17;;;14.80;99.90;;;;;;5149160;27;20205;-77
2021/08/09 00:37:57;;;;;;;7.90;2.43;;;14.80;99.90;;;;;;5146838;27;20323;-77
2021/08/09 00:40:24;;;;;;;11.47;2.33;;;14.80;99.90;;;;;;5150857;27;20201;-77
2021/08/09 00:42:51;;;;;;;17.70;3.07;;;14.80;99.90;;;;;;5142820;27;20297;-78
2021/08/09 00:45:18;;;;;;;12.67;2.33;;;14.90;99.90;;;;;;5170117;27;20196;-78
2021/08/09 00:47:45;;;;;;;17.57;3.53;;;15.00;99.90;;;;;;5166122;27;20221;-78
2021/08/09 00:50:12;;;;;;;11.93;2.77;;;15.10;99.90;;;;;;5170648;27;20204;-78
2021/08/09 00:52:41;;;;;;;13.77;2.23;;;15.20;99.90;;;;;;5168484;27;20200;-77
2021/08/09 00:55:09;;;;;;;11.67;2.97;;;15.30;99.90;;;;;;5169237;27;20532;-77
2021/08/09 00:57:36;;;;;;;9.23;2.47;;;15.30;99.90;;;;;;5169199;27;20196;-78
2021/08/09 01:00:05;;;;;;;16.57;2.57;;;15.30;99.90;;;;;;5167156;27;20227;-77
2021/08/09 01:02:32;;;;;;;11.13;3.00;;;15.40;99.90;;;;;;5169999;27;20196;-78
2021/08/09 01:05:00;;;;;;;11.73;2.80;;;15.40;99.90;;;;;;5166424;27;20616;-78
2021/08/09 01:07:31;;;;;;;10.73;2.23;;;15.50;99.90;;;;;;5170253;27;20223;-77
2021/08/09 01:10:05;;;;;;;8.20;2.27;;;15.40;99.90;;;;;;5166139;27;20563;-78
2021/08/09 01:12:40;;;;;;;8.30;2.20;;;15.50;99.90;;;;;;5171608;27;20193;-78
2021/08/09 01:15:13;;;;;;;6.97;2.20;;;15.50;99.90;;;;;;5165859;27;20188;-78
2021/08/09 01:17:43;;;;;;;11.47;2.40;;;15.50;99.90;;;;;;5171467;27;20188;-77
2021/08/09 01:20:22;;;;;;;10.17;2.70;;;15.50;99.90;;;;;;5166800;27;20638;-77
2021/08/09 01:23:07;;;;;;;18.23;2.47;;;15.50;99.90;;;;;;5171349;27;20283;-78
2021/08/09 01:25:44;;;;;;;8.67;2.50;;;15.60;99.90;;;;;;5154440;27;20197;-78
2021/08/09 01:28:13;;;;;;;7.70;2.13;;;15.70;99.90;;;;;;5154822;27;20224;-78
2021/08/09 01:30:43;;;;;;;10.13;2.33;;;15.70;99.90;;;;;;5154115;27;20744;-78
2021/08/09 01:33:12;;;;;;;16.93;2.50;;;15.70;99.90;;;;;;5153688;27;20614;-78
2021/08/09 01:35:39;;;;;;;12.07;2.57;;;15.70;99.90;;;;;;5152941;27;20201;-77
2021/08/09 01:38:07;;;;;;;8.43;2.20;;;15.80;99.90;;;;;;5153002;27;20197;-77
2021/08/09 01:40:36;;;;;;;10.07;2.80;;;15.80;99.90;;;;;;5153462;27;20201;-77
2021/08/09 01:43:03;;;;;;;8.87;2.37;;;15.80;99.90;;;;;;5152942;27;20694;-78
2021/08/09 01:45:33;;;;;;;13.50;2.90;;;15.80;99.90;;;;;;5153418;27;20201;-78
2021/08/09 01:48:01;;;;;;;8.33;2.33;;;15.80;99.90;;;;;;5154634;27;20216;-78
2021/08/09 01:50:28;;;;;;;13.43;2.97;;;15.90;99.90;;;;;;5153462;27;20204;-78
2021/08/09 01:52:55;;;;;;;9.53;2.63;;;15.90;99.90;;;;;;5153069;27;20196;-78
2021/08/09 01:55:23;;;;;;;9.77;2.47;;;15.90;99.90;;;;;;5154520;27;20212;-78
2021/08/09 01:57:50;;;;;;;14.67;2.50;;;15.90;99.90;;;;;;5154232;27;20284;-78
2021/08/09 02:00:18;;;;;;;13.93;2.77;;;15.90;99.90;;;;;;5154568;27;20201;-78
2021/08/09 02:02:48;;;;;;;15.90;2.50;;;16.00;99.90;;;;;;5154550;27;20215;-77
2021/08/09 02:05:17;;;;;;;12.57;2.43;;;16.00;99.90;;;;;;5157776;27;20200;-78
2021/08/09 02:07:46;;;;;;;7.63;2.80;;;16.00;99.90;;;;;;5157525;27;20216;-78
2021/08/09 02:10:17;;;;;;;9.07;2.43;;;16.00;99.90;;;;;;5157782;27;20622;-78
2021/08/09 02:12:55;;;;;;;7.73;2.27;;;16.00;99.90;;;;;;5156590;27;20566;-77
2021/08/09 02:15:29;;;;;;;13.10;2.60;;;16.00;99.90;;;;;;5156859;27;20189;-78
2021/08/09 02:18:04;;;;;;;7.63;2.67;;;16.00;99.90;;;;;;5158427;27;20204;-78
2021/08/09 02:20:35;;;;;;;7.63;2.10;;;16.10;99.90;;;;;;5144631;27;20192;-78
2021/08/09 02:23:05;;;;;;;12.50;2.63;;;16.00;99.90;;;;;;5158141;27;20196;-77
2021/08/09 02:25:34;;;;;;;16.10;2.97;;;16.00;99.90;;;;;;5157186;27;20196;-78
2021/08/09 02:28:08;;;;;;;14.13;3.10;;;16.00;99.90;;;;;;5157827;27;20592;-78
2021/08/09 02:30:38;;;;;;;9.67;2.83;;;15.90;99.90;;;;;;5157985;27;20626;-78
2021/08/09 02:33:07;;;;;;;12.97;2.67;;;15.90;99.90;;;;;;5158301;27;20205;-77
2021/08/09 02:35:35;;;;;;;7.83;2.80;;;16.00;99.90;;;;;;5158081;27;20635;-78
2021/08/09 02:38:02;;;;;;;8.83;3.03;;;15.90;99.90;;;;;;5158481;27;20204;-78
2021/08/09 02:40:30;;;;;;;9.77;2.73;;;16.00;99.90;;;;;;5157541;27;20697;-77
2021/08/09 02:42:57;;;;;;;10.27;2.97;;;16.00;99.90;;;;;;5156179;27;20303;-78
2021/08/09 02:45:24;;;;;;;8.57;2.97;;;15.90;99.90;;;;;;5156399;27;20280;-77
2021/08/09 02:47:52;;;;;;;9.03;3.57;;;15.90;99.90;;;;;;5156722;27;20227;-78
2021/08/09 02:50:20;;;;;;;11.77;3.20;;;15.80;99.90;;;;;;5157981;27;20296;-78
2021/08/09 02:52:48;;;;;;;12.27;3.27;;;15.80;99.90;;;;;;5156899;27;20204;-78
2021/08/09 02:55:17;;;;;;;8.37;3.07;;;15.70;99.90;;;;;;5157758;27;20670;-77
2021/08/09 02:57:47;;;;;;;7.70;3.07;;;15.60;99.90;;;;;;5157793;27;20227;-78
2021/08/09 03:00:14;;;;;;;12.33;3.00;;;15.60;99.90;;;;;;5157782;27;20684;-78
2021/08/09 03:02:44;;;;;;;10.17;3.20;;;15.60;99.90;;;;;;5157333;27;20280;-78
2021/08/09 03:05:13;;;;;;;9.13;3.00;;;15.60;99.90;;;;;;5157841;27;20287;-78
2021/08/09 03:07:44;;;;;;;7.47;3.23;;;15.50;99.90;;;;;;5157384;27;20270;-78
2021/08/09 03:10:12;;;;;;;12.60;3.37;;;15.40;99.90;;;;;;5157931;27;20199;-77
2021/08/09 03:12:39;;;;;;;8.03;3.13;;;15.40;99.90;;;;;;5155491;27;20197;-78
2021/08/09 03:15:07;;;;;;;11.00;3.33;;;15.40;99.90;;;;;;5156103;27;20231;-78
2021/08/09 03:17:34;;;;;;;6.13;3.03;;;15.50;99.90;;;;;;5156598;27;20664;-78
2021/08/09 03:20:01;;;;;;;6.07;3.43;;;15.60;99.90;;;;;;5156420;27;20271;-78
2021/08/09 03:22:27;;;;;;;9.50;3.30;;;15.60;99.90;;;;;;5156856;27;20291;-78
2021/08/09 03:24:56;;;;;;;12.77;3.07;;;15.50;99.90;;;;;;5156501;27;20240;-78
2021/08/09 03:27:22;;;;;;;9.93;3.20;;;15.50;99.90;;;;;;5156237;27;20215;-78
2021/08/09 03:29:49;;;;;;;11.90;2.70;;;15.50;99.90;;;;;;5157238;27;20295;-78
2021/08/09 03:32:16;;;;;;;5.47;2.60;;;15.50;99.90;;;;;;5157208;27;20292;-78
2021/08/09 03:34:43;;;;;;;7.57;2.80;;;15.50;99.90;;;;;;5157229;27;20296;-77
2021/08/09 03:37:10;;;;;;;10.90;3.10;;;15.50;99.90;;;;;;5157009;27;20291;-78
2021/08/09 03:39:37;;;;;;;8.80;3.17;;;15.50;99.90;;;;;;5157265;27;20287;-78
2021/08/09 03:42:05;;;;;;;9.97;2.90;;;15.60;99.90;;;;;;5156952;27;20225;-78
2021/08/09 03:44:32;;;;;;;6.27;2.77;;;15.60;99.90;;;;;;5156372;27;20656;-78
2021/08/09 03:46:59;;;;;;;8.90;2.90;;;15.60;99.90;;;;;;5156111;27;20215;-78
2021/08/09 03:49:25;;;;;;;6.97;2.70;;;15.60;99.90;;;;;;5156708;27;20229;-77
2021/08/09 03:51:52;;;;;;;9.77;2.90;;;15.60;99.90;;;;;;5156578;27;20208;-77
2021/08/09 03:54:19;;;;;;;8.53;2.97;;;15.60;99.90;;;;;;5156587;27;20220;-77
2021/08/09 03:56:46;;;;;;;5.60;3.10;;;15.60;99.90;;;;;;5157057;27;20236;-78
2021/08/09 03:59:14;;;;;;;6.97;2.77;;;15.60;99.90;;;;;;5156701;27;20284;-78
2021/08/09 04:01:41;;;;;;;7.63;3.00;;;15.50;99.90;;;;;;5156573;27;20199;-78
2021/08/09 04:04:09;;;;;;;4.57;2.70;;;15.60;99.90;;;;;;5156525;27;20313;-78
2021/08/09 04:06:36;;;;;;;7.07;2.83;;;15.50;99.90;;;;;;5156108;27;20287;-78
2021/08/09 04:09:03;;;;;;;6.60;3.07;;;15.60;99.90;;;;;;5155699;27;20227;-77
2021/08/09 04:11:30;;;;;;;6.47;2.90;;;15.60;99.90;;;;;;5156381;27;20201;-78
2021/08/09 04:13:57;;;;;;;7.13;3.20;;;15.50;99.90;;;;;;5154903;27;20207;-77
2021/08/09 04:16:25;;;;;;;9.23;3.33;;;15.60;99.90;;;;;;5155224;27;20211;-77
2021/08/09 04:18:53;;;;;;;5.83;2.77;;;15.50;99.90;;;;;;5155768;27;20201;-78
2021/08/09 04:21:20;;;;;;;8.07;3.40;;;15.50;99.90;;;;;;5155758;27;20840;-77
2021/08/09 04:23:48;;;;;;;7.37;3.37;;;15.50;99.90;;;;;;5141622;27;20201;-77
2021/08/09 04:26:15;;;;;;;5.57;2.93;;;15.50;99.90;;;;;;5155118;27;20197;-77
2021/08/09 04:28:42;;;;;;;6.17;3.43;;;15.50;99.90;;;;;;5155375;27;20684;-78
2021/08/09 04:31:09;;;;;;;12.03;3.30;;;15.50;99.90;;;;;;5155010;27;20213;-77
2021/08/09 04:33:43;;;;;;;8.30;3.33;;;15.40;99.90;;;;;;5155622;27;20208;-77
2021/08/09 04:36:09;;;;;;;10.37;3.10;;;15.40;99.90;;;;;;5155841;27;20677;-77
2021/08/09 04:38:36;;;;;;;10.33;3.43;;;15.40;99.90;;;;;;5156064;27;20280;-77
2021/08/09 04:41:06;;;;;;;9.70;3.07;;;15.30;99.90;;;;;;5154495;27;20645;-77
2021/08/09 04:43:34;;;;;;;9.43;3.73;;;15.20;99.90;;;;;;5155538;27;20715;-77
2021/08/09 04:46:01;;;;;;;7.83;3.30;;;15.20;99.90;;;;;;5154574;27;20193;-77
2021/08/09 04:48:28;;;;;;;5.47;3.03;;;15.30;99.90;;;;;;5155392;27;20695;-77
2021/08/09 04:50:56;;;;;;;7.20;3.13;;;15.20;99.90;;;;;;5155401;27;20638;-77
2021/08/09 04:53:23;;;;;;;8.50;3.03;;;15.30;99.90;;;;;;5155655;27;20200;-77
2021/08/09 04:55:51;;;;;;;8.37;3.20;;;15.30;99.90;;;;;;5155377;27;20295;-77
2021/08/09 04:58:17;;;;;;;7.13;3.40;;;15.40;99.90;;;;;;5154595;27;20199;-77
2021/08/09 05:00:44;;;;;;;8.20;3.33;;;15.30;99.90;;;;;;5153399;27;20215;-77
2021/08/09 05:03:11;;;;;;;12.53;3.07;;;15.40;99.90;;;;;;5154298;27;20199;-76
2021/08/09 05:05:38;;;;;;;8.30;3.53;;;15.40;99.90;;;;;;5155144;27;20204;-77
2021/08/09 05:08:06;;;;;;;7.83;3.20;;;15.50;99.90;;;;;;5154713;27;20224;-77
2021/08/09 05:10:33;;;;;;;11.47;3.43;;;15.50;99.90;;;;;;5155273;27;20211;-77
2021/08/09 05:13:00;;;;;;;6.67;2.90;;;15.40;99.90;;;;;;5153466;27;20397;-77
2021/08/09 05:15:29;;;;;;;9.00;3.20;;;15.40;99.90;;;;;;5153193;27;20648;-77
2021/08/09 05:17:56;;;;;;;7.10;2.80;;;15.50;99.90;;;;;;5154919;27;20197;-77
2021/08/09 05:20:23;;;;;;;5.93;2.87;;;15.50;99.90;;;;;;5140542;27;20196;-77
2021/08/09 05:22:49;;;;;;;8.47;3.10;;;15.50;99.90;;;;;;5154983;27;20205;-77
2021/08/09 05:25:18;;;;;;;6.40;2.90;;;15.60;99.90;;;;;;5153278;27;20583;-77
2021/08/09 05:27:44;;;;;;;8.97;2.90;;;15.50;99.90;;;;;;5152947;27;20196;-77
2021/08/09 05:30:12;;;;;;;6.07;3.00;;;15.50;99.90;;;;;;5154020;27;20281;-77
2021/08/09 05:32:40;;;;;;;10.77;2.93;;;15.50;99.90;;;;;;5154596;27;20303;-77
2021/08/09 05:35:09;;;;;;;7.57;3.00;;;15.50;99.90;;;;;;5154420;27;20291;-77
2021/08/09 05:37:36;;;;;;;5.90;2.70;;;15.50;99.90;;;;;;5154412;27;20196;-76
2021/08/09 05:40:05;;;;;;;5.43;2.50;;;15.60;99.90;;;;;;5153702;27;20561;-77
2021/08/09 05:42:34;;;;;;;7.73;3.00;;;15.70;99.90;;;;;;5152494;27;20205;-77
2021/08/09 05:45:00;;;;;;;4.93;2.40;;;16.10;99.90;;;;;;5153035;27;20205;-77
2021/08/09 05:47:27;;;;;;;4.37;2.40;;;16.60;99.90;;;;;;5153706;27;20698;-77
2021/08/09 05:49:56;;;;;;;7.43;2.30;;;17.10;99.90;;;;;;5154590;27;20220;-77
2021/08/09 05:52:24;;;;;;;3.53;2.57;;;17.40;99.90;;;;;;5153966;27;20261;-77
2021/08/09 05:54:52;;;;;;;5.73;2.47;;;17.50;99.90;;;;;;5153112;27;20611;-77
2021/08/09 05:57:19;;;;;;;6.37;2.20;;;17.70;99.90;;;;;;5152859;27;20201;-77
2021/08/09 05:59:48;;;;;;;9.47;2.30;;;17.90;99.90;;;;;;5152550;27;20204;-76
2021/08/09 06:02:15;;;;;;;4.33;2.10;;;18.00;99.90;;;;;;5153317;27;20197;-77
2021/08/09 06:04:42;;;;;;;8.07;2.50;;;18.00;99.90;;;;;;5153784;27;20224;-77
2021/08/09 06:07:12;;;;;;;3.83;2.00;;;18.00;99.90;;;;;;5153784;27;20196;-77
2021/08/09 06:09:39;;;;;;;4.97;2.20;;;17.90;99.90;;;;;;5153865;27;20221;-77
2021/08/09 06:12:07;;;;;;;8.87;2.80;;;17.90;99.90;;;;;;5153451;27;20211;-77
2021/08/09 06:14:33;;;;;;;6.83;2.40;;;17.90;99.90;;;;;;5161618;27;20222;-77
2021/08/09 06:17:02;;;;;;;6.63;2.30;;;17.90;99.90;;;;;;5158109;27;20236;-76
2021/08/09 06:19:29;;;;;;;7.93;2.57;;;17.80;99.90;;;;;;5162095;27;20283;-76
2021/08/09 06:21:56;;;;;;;7.33;2.90;;;17.80;99.90;;;;;;5159448;27;20570;-76
2021/08/09 06:24:23;;;;;;;12.13;3.17;;;17.80;99.90;;;;;;5160528;27;20201;-76
2021/08/09 06:26:50;;;;;;;5.30;3.00;;;17.70;99.90;;;;;;5156803;27;20686;-77
2021/08/09 06:29:17;;;;;;;8.13;3.30;;;17.70;99.90;;;;;;5153481;27;20235;-76
2021/08/09 06:31:44;;;;;;;7.47;2.30;;;17.70;99.90;;;;;;5152455;27;20626;-77
2021/08/09 06:34:12;;;;;;;8.67;2.27;;;17.80;99.90;;;;;;5146667;27;20197;-78
2021/08/09 06:36:39;;;;;;;8.57;2.70;;;17.90;99.90;;;;;;5146222;27;20204;-77
2021/08/09 06:39:06;;;;;;;5.93;2.97;;;18.00;99.90;;;;;;5152553;27;20279;-77
2021/08/09 06:41:34;;;;;;;6.33;2.67;;;18.30;99.90;;;;;;5155267;27;20193;-77
2021/08/09 06:44:01;;;;;;;8.10;2.70;;;18.30;99.90;;;;;;5156484;27;20257;-76
2021/08/09 06:46:28;;;;;;;5.93;2.17;;;18.40;99.90;;;;;;5155067;27;20223;-77
2021/08/09 06:48:55;;;;;;;5.77;2.33;;;18.40;99.90;;;;;;5157654;27;20216;-76
2021/08/09 06:51:24;;;;;;;8.97;2.57;;;18.60;99.90;;;;;;5157269;27;20288;-77
2021/08/09 06:53:50;;;;;;;6.20;2.50;;;18.70;99.90;;;;;;5157982;27;20253;-77
2021/08/09 06:56:17;;;;;;;9.23;2.63;;;18.90;99.90;;;;;;5174249;27;20203;-77
2021/08/09 06:58:44;;;;;;;5.50;1.73;;;18.80;99.90;;;;;;5176956;27;20239;-77
2021/08/09 07:01:11;;;;;;;7.33;2.10;;;18.90;99.90;;;;;;5175056;27;20291;-77
2021/08/09 07:03:38;;;;;;;8.70;2.30;;;19.10;99.90;;;;;;5176317;27;20287;-77
2021/08/09 07:06:05;;;;;;;6.17;2.10;;;19.20;99.90;;;;;;5176579;27;20227;-77
2021/08/09 07:08:33;;;;;;;3.07;1.77;;;19.30;99.90;;;;;;5175556;27;20216;-77
2021/08/09 07:10:59;;;;;;;4.00;1.67;;;19.40;99.90;;;;;;5176788;27;20208;-77
2021/08/09 07:13:26;;;;;;;11.50;2.10;;;19.50;99.90;;;;;;5167320;27;20192;-77
2021/08/09 07:15:53;;;;;;;5.50;1.70;;;19.50;99.90;;;;;;5174536;27;20202;-77
2021/08/09 07:18:20;;;;;;;4.00;1.90;;;19.60;99.90;;;;;;5173454;27;20197;-77
2021/08/09 07:20:47;;;;;;;5.30;1.83;;;19.60;99.90;;;;;;5175430;27;20291;-77
2021/08/09 07:23:15;;;;;;;3.63;1.70;;;19.50;99.90;;;;;;5172766;27;20567;-77
2021/08/09 07:25:43;;;;;;;6.90;2.20;;;19.50;99.90;;;;;;5170446;27;20196;-77
2021/08/09 07:28:10;;;;;;;4.60;1.97;;;19.70;99.90;;;;;;5155283;27;20201;-77
2021/08/09 07:30:37;;;;;;;6.00;2.43;;;19.80;99.90;;;;;;5156788;27;20284;-77
2021/08/09 07:33:05;;;;;;;4.67;1.87;;;19.80;99.90;;;;;;5156086;27;20207;-77
2021/08/09 07:35:31;;;;;;;6.47;2.43;;;19.90;99.90;;;;;;5156377;27;20668;-77
2021/08/09 07:37:58;;;;;;;8.07;2.07;;;20.00;99.90;;;;;;5157121;27;20196;-77
2021/08/09 07:40:25;;;;;;;4.70;2.40;;;19.90;99.90;;;;;;5155393;27;20235;-77
2021/08/09 07:42:53;;;;;;;3.63;1.93;;;20.00;99.90;;;;;;5154112;27;20235;-77
2021/08/09 07:45:21;;;;;;;8.10;2.23;;;20.10;99.90;;;;;;5155340;27;20736;-77
2021/08/09 07:47:51;;;;;;;4.27;2.40;;;20.10;99.90;;;;;;5153814;27;20201;-78
2021/08/09 07:50:18;;;;;;;4.93;2.23;;;20.00;99.90;;;;;;5154431;27;20308;-77
2021/08/09 07:52:45;;;;;;;5.77;2.10;;;20.00;99.90;;;;;;5154581;27;20287;-77
2021/08/09 07:55:13;;;;;;;7.20;2.13;;;19.90;99.90;;;;;;5155095;27;20223;-77
2021/08/09 07:57:41;;;;;;;3.93;1.90;;;19.80;99.90;;;;;;5154903;27;20627;-77
2021/08/09 08:00:11;;;;;;;5.37;2.13;;;20.10;99.90;;;;;;5155458;27;20627;-78
2021/08/09 08:02:38;;;;;;;6.70;2.13;;;20.50;99.90;;;;;;5154299;27;20204;-77
2021/08/09 08:05:06;;;;;;;10.23;2.20;;;20.70;99.90;;;;;;5155802;27;20224;-76
2021/08/09 08:07:33;;;;;;;3.90;2.10;;;20.50;99.90;;;;;;5154276;27;20720;-77
2021/08/09 08:10:01;;;;;;;6.97;2.10;;;20.50;99.90;;;;;;5155491;27;20253;-77
2021/08/09 08:12:28;;;;;;;9.37;2.80;;;20.60;99.90;;;;;;5156018;27;20203;-78
2021/08/09 08:14:55;;;;;;;7.47;2.37;;;20.50;99.90;;;;;;5164281;27;20283;-78
2021/08/09 08:17:24;;;;;;;8.00;2.40;;;20.30;99.90;;;;;;5149281;27;20207;-77
2021/08/09 08:19:50;;;;;;;10.37;2.40;;;20.30;99.90;;;;;;5157331;27;20307;-78
2021/08/09 08:22:17;;;;;;;8.23;2.40;;;20.30;99.90;;;;;;5174158;27;20291;-77
2021/08/09 08:24:44;;;;;;;9.33;2.40;;;20.30;99.90;;;;;;5151178;27;20201;-77
2021/08/09 08:27:12;;;;;;;5.63;2.30;;;20.20;99.90;;;;;;5156599;27;20640;-77
2021/08/09 08:29:39;;;;;;;5.60;1.70;;;20.00;99.90;;;;;;5156451;27;20216;-77
2021/08/09 08:32:06;;;;;;;6.83;2.00;;;19.50;99.90;;;;;;5147895;27;20218;-77
2021/08/09 08:34:34;;;;;;;3.97;1.90;;;19.30;99.90;;;;;;5154972;27;20240;-77
2021/08/09 08:37:01;;;;;;;8.37;2.00;;;19.20;99.90;;;;;;5154787;27;20204;-77
